createdAt,value
2022-11-17T01:27:35.014Z,12.56
2022-11-17T02:05:34.840Z,12.34
2022-11-17T03:45:58.929Z,10.70
2022-11-17T03:49:45.594Z,10.62
2022-11-17T03:53:30.920Z,10.49
2022-11-17T04:00:24.374Z,10.80
2022-11-17T04:03:53.836Z,10.98
2022-11-17T04:07:02.715Z,11.14
2022-11-17T04:10:07.791Z,11.12
2022-11-17T04:13:28.789Z,11.04
2022-11-17T04:16:33.629Z,11.25
2022-11-17T04:19:35.787Z,11.26
2022-11-17T04:22:37.653Z,11.16
2022-11-17T04:25:59.130Z,11.11
2022-11-17T04:29:00.815Z,11.32
2022-11-17T04:32:02.472Z,11.14
2022-11-17T04:35:04.704Z,11.15
2022-11-17T04:38:42.225Z,11.23
2022-11-17T04:42:17.773Z,11.69
2022-11-17T04:45:19.321Z,11.63
2022-11-17T05:45:54.639Z,11.96
2022-11-17T06:19:18.710Z,12.76
2022-11-17T06:26:44.485Z,12.28
2022-11-17T06:29:55.570Z,12.30
2022-11-17T06:34:11.634Z,12.55
2022-11-17T06:37:20.751Z,12.27
2022-11-17T06:40:57.204Z,12.46
2022-11-17T06:43:59.236Z,12.28
2022-11-17T06:47:00.939Z,12.59
2022-11-17T06:50:03.419Z,12.55
2022-11-17T06:53:08.532Z,12.42
2022-11-17T06:56:11.503Z,12.55
2022-11-17T06:59:15.361Z,12.46
2022-11-17T07:02:17.010Z,12.35
2022-11-17T07:05:18.670Z,12.33
2022-11-17T07:08:22.762Z,12.33
2022-11-17T07:11:24.519Z,12.37
2022-11-17T07:14:27.155Z,12.14
2022-11-17T07:17:32.824Z,12.25
2022-11-17T07:24:51.868Z,11.94
2022-11-17T07:28:00.307Z,12.25
2022-11-17T07:31:04.596Z,12.34
2022-11-17T07:34:06.250Z,12.40
2022-11-17T07:37:07.934Z,12.38
2022-11-17T07:40:10.248Z,12.35
2022-11-17T07:43:11.873Z,12.41
2022-11-17T07:46:15.013Z,12.52
2022-11-17T07:49:16.996Z,12.61
2022-11-17T07:52:23.607Z,12.51
2022-11-17T07:55:25.909Z,12.52
2022-11-17T07:58:29.779Z,12.46
2022-11-17T08:01:31.466Z,12.58
2022-11-17T08:04:33.189Z,12.50
2022-11-17T08:07:34.974Z,12.39
2022-11-17T08:10:36.705Z,12.30
2022-11-17T08:13:40.021Z,12.29
2022-11-17T08:16:42.202Z,12.25
2022-11-17T08:19:43.842Z,12.26
2022-11-17T08:22:46.493Z,12.24
2022-11-17T08:25:48.277Z,12.35
2022-11-17T08:28:53.713Z,12.37
2022-11-17T08:31:59.778Z,12.29
2022-11-17T08:35:04.104Z,12.29
2022-11-17T08:38:06.152Z,12.43
2022-11-17T08:41:08.521Z,12.34
2022-11-17T08:44:10.206Z,12.39
2022-11-17T08:47:11.880Z,12.39
2022-11-17T08:50:13.819Z,12.32
2022-11-17T08:53:19.102Z,12.26
2022-11-17T08:56:20.930Z,12.13
2022-11-17T08:59:22.684Z,12.08
2022-11-17T09:02:24.425Z,12.07
2022-11-17T09:05:26.071Z,12.05
2022-11-17T09:08:44.981Z,12.04
2022-11-17T09:11:48.256Z,12.13
2022-11-17T09:14:49.916Z,12.13
2022-11-17T09:17:51.886Z,12.19
2022-11-17T09:20:59.490Z,12.27
2022-11-17T09:24:01.316Z,12.25
2022-11-17T09:27:06.389Z,12.12
2022-11-17T09:30:08.563Z,12.30
2022-11-17T09:33:10.297Z,12.13
2022-11-17T09:36:13.993Z,12.07
2022-11-17T09:39:18.397Z,12.15
2022-11-17T09:42:21.349Z,12.14
2022-11-17T09:45:30.173Z,12.32
2022-11-17T09:49:02.541Z,12.32
2022-11-17T09:52:15.490Z,12.35
2022-11-17T09:55:23.059Z,12.51
2022-11-17T09:58:38.553Z,12.61
2022-11-17T10:01:40.769Z,12.46
2022-11-17T10:04:47.537Z,12.42
2022-11-17T10:07:52.386Z,12.30
2022-11-17T10:10:58.175Z,12.27
2022-11-17T10:14:14.180Z,12.07
2022-11-17T10:17:16.639Z,11.87
2022-11-17T10:20:20.361Z,11.62
2022-11-17T10:23:27.864Z,11.53
2022-11-17T10:26:43.757Z,11.42
2022-11-17T10:30:07.073Z,11.30
2022-11-17T10:33:13.742Z,11.37
2022-11-17T11:43:32.448Z,13.07
2022-11-17T11:47:12.264Z,13.60
2022-11-17T11:50:22.066Z,13.79
2022-11-17T11:57:16.769Z,13.91
2022-11-17T12:01:01.177Z,13.55
2022-11-17T12:04:24.532Z,13.33
2022-11-17T12:11:25.456Z,13.67
2022-11-17T12:14:33.564Z,13.43
2022-11-17T12:17:35.851Z,13.36
2022-11-17T12:20:44.387Z,13.23
2022-11-17T12:24:03.915Z,13.12
2022-11-17T12:27:36.212Z,13.08
2022-11-17T12:30:43.653Z,13.02
2022-11-17T12:33:54.033Z,13.00
2022-11-17T12:37:14.739Z,13.05
2022-11-17T12:40:38.033Z,13.29
2022-11-17T12:43:39.653Z,13.62
2022-11-17T12:46:43.820Z,13.83
2022-11-17T12:49:52.668Z,13.73
2022-11-17T12:53:00.141Z,13.71
2022-11-17T12:56:20.693Z,13.92
2022-11-17T13:00:01.270Z,14.27
2022-11-17T13:03:16.599Z,14.37
2022-11-17T13:06:34.996Z,14.48
2022-11-17T13:09:37.454Z,14.50
2022-11-17T13:12:39.089Z,14.57
2022-11-17T13:15:42.263Z,14.44
2022-11-17T13:18:44.064Z,14.44
2022-11-17T13:21:45.864Z,14.27
2022-11-17T13:24:50.403Z,14.07
2022-11-17T13:27:57.140Z,14.09
2022-11-17T13:31:02.041Z,13.87
2022-11-17T13:34:10.072Z,13.82
2022-11-17T13:37:16.814Z,13.86
2022-11-17T13:40:21.718Z,13.79
2022-11-17T13:43:25.676Z,13.85
2022-11-17T13:50:09.532Z,13.47
2022-11-17T13:50:26.661Z,13.84
2022-11-17T13:53:28.560Z,13.78
2022-11-17T13:56:41.252Z,13.83
2022-11-17T13:59:44.689Z,13.85
2022-11-17T14:02:57.110Z,13.87
2022-11-17T14:05:58.678Z,13.79
2022-11-17T14:09:05.408Z,13.79
2022-11-17T14:12:11.442Z,13.82
2022-11-17T14:15:34.875Z,14.23
2022-11-17T14:18:37.213Z,14.39
2022-11-17T14:22:00.796Z,14.46
2022-11-17T14:25:05.207Z,14.10
2022-11-17T14:28:18.108Z,14.02
2022-11-17T14:31:19.746Z,13.92
2022-11-17T14:34:22.056Z,13.89
2022-11-17T14:37:24.573Z,13.90
2022-11-17T14:40:26.177Z,13.74
2022-11-17T14:43:27.832Z,13.70
2022-11-17T14:46:29.409Z,13.71
2022-11-17T14:49:31.125Z,13.76
2022-11-17T14:52:33.109Z,13.66
2022-11-17T14:55:34.899Z,13.79
2022-11-17T14:58:36.587Z,13.78
2022-11-17T15:01:41.163Z,13.75
2022-11-17T15:04:50.880Z,13.67
2022-11-17T15:07:53.193Z,13.59
2022-11-17T15:10:55.407Z,13.57
2022-11-17T15:14:05.111Z,13.56
2022-11-17T15:17:11.222Z,13.59
2022-11-17T15:20:40.608Z,13.63
2022-11-17T15:23:42.787Z,13.53
2022-11-17T15:26:44.712Z,13.52
2022-11-17T15:29:46.465Z,13.44
2022-11-17T15:32:48.186Z,13.49
2022-11-17T15:36:03.485Z,13.44
2022-11-17T15:39:05.364Z,13.50
2022-11-17T15:42:06.994Z,13.39
2022-11-17T15:45:09.223Z,13.38
2022-11-17T15:48:13.651Z,13.39
2022-11-17T15:51:24.735Z,13.29
2022-11-17T15:54:26.326Z,13.21
2022-11-17T15:57:30.206Z,13.20
2022-11-17T16:00:40.160Z,13.23
2022-11-17T16:03:43.845Z,13.19
2022-11-17T16:06:46.910Z,13.18
2022-11-17T16:09:52.813Z,13.10
2022-11-17T16:12:54.525Z,13.07
2022-11-17T16:15:57.065Z,13.06
2022-11-17T16:18:58.971Z,13.03
2022-11-17T16:22:00.621Z,13.04
2022-11-17T16:25:02.262Z,13.11
2022-11-17T16:28:04.003Z,13.11
2022-11-17T16:31:17.593Z,13.09
2022-11-17T16:34:19.362Z,13.06
2022-11-17T16:37:20.983Z,12.97
2022-11-17T16:40:22.888Z,13.00
2022-11-17T16:43:24.633Z,12.97
2022-11-17T16:46:31.637Z,12.94
2022-11-17T16:49:35.304Z,13.02
2022-11-17T16:52:37.005Z,12.96
2022-11-17T16:55:38.970Z,13.06
2022-11-17T16:58:41.285Z,13.06
2022-11-17T17:01:43.097Z,12.96
2022-11-17T17:04:44.911Z,13.06
2022-11-17T17:07:53.981Z,12.76
2022-11-17T17:11:01.261Z,12.95
2022-11-17T17:14:08.349Z,12.94
2022-11-17T17:17:10.091Z,13.15
2022-11-17T17:20:12.133Z,13.11
2022-11-17T17:23:13.733Z,13.16
2022-11-17T17:26:18.405Z,13.13
2022-11-17T17:29:20.150Z,13.19
2022-11-17T17:32:21.765Z,13.09
2022-11-17T17:35:29.313Z,13.06
2022-11-17T17:38:31.606Z,12.97
2022-11-17T17:41:37.927Z,12.94
2022-11-17T17:44:39.568Z,12.86
2022-11-17T17:47:41.157Z,12.86
2022-11-17T17:50:45.658Z,12.70
2022-11-17T17:53:50.129Z,12.41
2022-11-17T17:56:52.704Z,12.08
2022-11-17T17:59:54.455Z,11.96
2022-11-17T18:02:56.477Z,11.75
2022-11-17T18:06:03.596Z,11.59
2022-11-17T18:09:07.257Z,11.44
2022-11-17T18:12:09.600Z,11.33
2022-11-17T18:15:11.976Z,11.25
2022-11-17T18:18:19.758Z,11.06
2022-11-17T18:21:21.912Z,10.72
2022-11-17T18:24:26.149Z,10.63
2022-11-17T18:27:27.900Z,10.27
2022-11-17T18:30:29.882Z,10.09
2022-11-17T18:33:31.722Z,10.06
2022-11-17T18:36:34.774Z,10.04
2022-11-17T18:39:36.505Z,10.06
2022-11-17T18:42:40.350Z,9.92
2022-11-17T18:45:42.570Z,9.91
2022-11-17T18:48:47.725Z,9.75
2022-11-17T18:51:49.753Z,9.64
2022-11-17T18:54:51.418Z,9.54
2022-11-17T18:57:53.134Z,9.41
2022-11-17T19:01:08.449Z,9.43
2022-11-17T19:04:13.580Z,9.29
2022-11-17T19:07:19.693Z,9.37
2022-11-17T19:10:21.403Z,9.31
2022-11-17T19:13:35.068Z,9.19
2022-11-17T19:16:44.621Z,9.09
2022-11-17T19:19:47.439Z,9.16
2022-11-17T19:22:48.992Z,9.13
2022-11-17T19:25:50.723Z,9.07
2022-11-17T19:28:57.439Z,8.94
2022-11-17T19:31:59.233Z,9.04
2022-11-17T19:35:11.702Z,9.02
2022-11-17T19:38:18.853Z,9.01
2022-11-17T19:41:50.770Z,8.86
2022-11-17T19:45:13.364Z,8.97
2022-11-17T19:48:19.707Z,9.00
2022-11-17T19:51:25.295Z,8.96
2022-11-17T19:54:27.153Z,8.88
2022-11-17T19:57:37.884Z,8.76
2022-11-17T20:00:56.399Z,8.90
2022-11-17T20:04:10.256Z,8.83
2022-11-17T20:07:12.050Z,8.85
2022-11-17T20:10:13.816Z,8.96
2022-11-17T20:13:15.504Z,9.04
2022-11-17T20:16:20.079Z,9.07
2022-11-17T20:19:21.872Z,8.99
2022-11-17T20:22:23.615Z,8.97
2022-11-17T20:25:27.479Z,9.13
2022-11-17T20:28:32.218Z,9.09
2022-11-17T20:31:35.840Z,9.04
2022-11-17T20:34:37.516Z,9.03
2022-11-17T20:37:39.145Z,8.98
2022-11-17T20:40:41.362Z,8.94
2022-11-17T20:43:46.730Z,8.98
2022-11-17T20:50:06.204Z,8.88
2022-11-17T20:53:07.890Z,8.88
2022-11-17T20:56:12.147Z,8.88
2022-11-17T20:59:20.059Z,8.88
2022-11-17T21:02:22.236Z,8.88
2022-11-17T21:05:24.036Z,8.83
2022-11-17T21:08:27.671Z,8.85
2022-11-17T21:11:47.958Z,8.84
2022-11-17T21:14:49.689Z,8.84
2022-11-17T21:18:10.040Z,8.91
2022-11-17T21:21:12.197Z,8.98
2022-11-17T21:24:14.517Z,8.98
2022-11-17T21:27:19.915Z,8.99
2022-11-17T21:30:21.488Z,9.01
2022-11-17T21:33:23.353Z,9.00
2022-11-17T21:36:29.355Z,9.03
2022-11-17T21:39:31.042Z,8.95
2022-11-17T21:42:35.443Z,8.95
2022-11-17T21:45:38.271Z,8.88
2022-11-17T21:49:07.155Z,9.03
2022-11-17T21:52:09.233Z,8.91
2022-11-17T21:55:16.104Z,8.77
2022-11-17T21:58:22.861Z,8.82
2022-11-17T22:01:49.963Z,8.81
2022-11-17T22:04:51.550Z,8.80
2022-11-17T22:07:53.536Z,8.72
2022-11-17T22:10:55.112Z,8.81
2022-11-17T22:13:57.506Z,8.80
2022-11-17T22:17:01.436Z,8.79
2022-11-17T22:20:03.686Z,8.85
2022-11-17T22:23:05.380Z,8.94
2022-11-17T22:26:35.823Z,9.12
2022-11-17T22:29:44.138Z,9.07
2022-11-17T22:32:46.467Z,9.13
2022-11-17T22:35:48.774Z,9.09
2022-11-17T22:39:26.076Z,9.14
2022-11-17T22:42:31.042Z,9.13
2022-11-17T22:45:37.001Z,9.24
2022-11-17T22:48:38.798Z,9.28
2022-11-17T22:51:59.223Z,9.35
2022-11-17T22:55:00.912Z,9.31
2022-11-17T22:58:02.895Z,9.31
2022-11-17T23:01:24.910Z,9.26
2022-11-17T23:04:30.458Z,9.29
2022-11-17T23:07:32.225Z,9.33
2022-11-17T23:10:33.953Z,9.33
2022-11-17T23:13:36.688Z,9.29
2022-11-17T23:16:38.712Z,9.30
2022-11-17T23:20:06.065Z,9.10
2022-11-17T23:23:14.042Z,9.36
2022-11-17T23:26:24.734Z,9.12
2022-11-17T23:29:30.831Z,9.35
2022-11-17T23:32:32.678Z,9.31
2022-11-17T23:35:34.568Z,9.30
2022-11-17T23:38:36.334Z,9.32
2022-11-17T23:41:43.371Z,9.34
2022-11-17T23:44:50.605Z,9.23
2022-11-17T23:47:53.558Z,9.33
2022-11-17T23:50:55.208Z,9.33
2022-11-17T23:54:01.523Z,9.31
2022-11-17T23:57:03.959Z,9.20
